Alpine, Texas
Current Conditions -  °F | °C
As of 7:55 PM on Monday 20 Oct 2014 (Local Time) from KE38 Reporting Station
Overcast Overcast  
Wind Chill: 60°   Ceiling: 4400
Heat Index: 60°   Visibility: 10mi
Dew Point: 56°   Wind: 3mph
Humidity: 87%   Direction: 90°E
Pressure: 30.17"   Gusts: NA
Location:  30.36°N, 103.66°W
Report Text: KE38 210055Z AUTO 09003KT 10SM SCT021 BKN044 OVC050 16/14 A3017 RMK AO2 LTG DSNT NE THRU S T01570135
Loading
Personal Weather Stations






























Interactive Weather Map
Tropical Storm Tracking
New forecast layout! Learn more

10-Day Weather Forecast

Advertisements
Track Severe Weather on mobile